sensor_id;sensor_type;location;lat;lon;timestamp;pressure;altitude;pressure_sealevel;temperature;humidity
53546;BME280;39432;51.902;10.844;2023-11-21T00:02:26;98952.91;;;9.00;100.00
53546;BME280;39432;51.902;10.844;2023-11-21T00:05:17;98952.09;;;9.00;100.00
53546;BME280;39432;51.902;10.844;2023-11-21T00:08:10;98951.94;;;9.16;100.00
53546;BME280;39432;51.902;10.844;2023-11-21T00:11:01;98957.31;;;9.06;100.00
53546;BME280;39432;51.902;10.844;2023-11-21T00:13:52;98956.28;;;9.12;100.00
53546;BME280;39432;51.902;10.844;2023-11-21T00:16:45;98954.63;;;9.11;100.00
53546;BME280;39432;51.902;10.844;2023-11-21T00:19:36;98949.16;;;9.11;100.00
53546;BME280;39432;51.902;10.844;2023-11-21T00:22:26;98950.22;;;9.05;100.00
53546;BME280;39432;51.902;10.844;2023-11-21T00:25:17;98952.72;;;9.12;100.00
53546;BME280;39432;51.902;10.844;2023-11-21T00:28:07;98954.69;;;8.74;100.00
53546;BME280;39432;51.902;10.844;2023-11-21T00:30:58;98961.72;;;9.07;100.00
53546;BME280;39432;51.902;10.844;2023-11-21T00:33:51;98956.22;;;9.02;100.00
53546;BME280;39432;51.902;10.844;2023-11-21T00:36:42;98965.50;;;9.01;100.00
53546;BME280;39432;51.902;10.844;2023-11-21T00:39:32;98963.38;;;9.13;100.00
53546;BME280;39432;51.902;10.844;2023-11-21T00:42:23;98956.84;;;9.14;100.00
53546;BME280;39432;51.902;10.844;2023-11-21T00:45:13;98963.38;;;9.13;100.00
53546;BME280;39432;51.902;10.844;2023-11-21T00:48:04;98966.22;;;9.29;100.00
53546;BME280;39432;51.902;10.844;2023-11-21T00:50:58;98967.94;;;9.50;100.00
53546;BME280;39432;51.902;10.844;2023-11-21T00:53:49;98964.31;;;9.34;100.00
53546;BME280;39432;51.902;10.844;2023-11-21T00:56:40;98969.22;;;9.32;100.00
53546;BME280;39432;51.902;10.844;2023-11-21T00:59:30;98973.38;;;9.40;100.00
53546;BME280;39432;51.902;10.844;2023-11-21T01:02:20;98978.16;;;9.22;100.00
53546;BME280;39432;51.902;10.844;2023-11-21T01:05:11;98979.72;;;9.08;100.00
53546;BME280;39432;51.902;10.844;2023-11-21T01:08:04;98991.22;;;9.15;100.00
53546;BME280;39432;51.902;10.844;2023-11-21T01:10:55;98987.44;;;9.21;100.00
53546;BME280;39432;51.902;10.844;2023-11-21T01:13:46;98997.28;;;9.28;100.00
53546;BME280;39432;51.902;10.844;2023-11-21T01:16:37;98997.97;;;9.45;100.00
53546;BME280;39432;51.902;10.844;2023-11-21T01:19:27;98996.91;;;9.61;100.00
53546;BME280;39432;51.902;10.844;2023-11-21T01:22:17;98995.16;;;9.30;100.00
53546;BME280;39432;51.902;10.844;2023-11-21T01:25:16;98999.28;;;8.95;100.00
53546;BME280;39432;51.902;10.844;2023-11-21T01:28:06;99003.66;;;8.96;100.00
53546;BME280;39432;51.902;10.844;2023-11-21T01:30:57;99016.03;;;9.09;100.00
53546;BME280;39432;51.902;10.844;2023-11-21T01:33:47;99019.41;;;8.89;100.00
53546;BME280;39432;51.902;10.844;2023-11-21T01:36:38;99024.16;;;9.04;100.00
53546;BME280;39432;51.902;10.844;2023-11-21T01:39:28;99018.28;;;9.22;100.00
53546;BME280;39432;51.902;10.844;2023-11-21T01:42:22;99025.13;;;9.24;100.00
53546;BME280;39432;51.902;10.844;2023-11-21T01:45:13;99023.50;;;9.23;100.00
53546;BME280;39432;51.902;10.844;2023-11-21T01:48:04;99023.88;;;9.00;100.00
53546;BME280;39432;51.902;10.844;2023-11-21T01:50:56;99027.47;;;9.11;100.00
53546;BME280;39432;51.902;10.844;2023-11-21T01:53:46;99034.94;;;9.20;100.00
53546;BME280;39432;51.902;10.844;2023-11-21T01:56:37;99028.88;;;9.13;100.00
53546;BME280;39432;51.902;10.844;2023-11-21T01:59:34;99033.88;;;9.27;100.00
53546;BME280;39432;51.902;10.844;2023-11-21T02:02:25;99035.69;;;9.53;100.00
53546;BME280;39432;51.902;10.844;2023-11-21T02:05:17;99020.81;;;9.29;100.00
53546;BME280;39432;51.902;10.844;2023-11-21T02:08:09;99028.66;;;9.67;100.00
53546;BME280;39432;51.902;10.844;2023-11-21T02:10:59;99019.91;;;9.70;100.00
53546;BME280;39432;51.902;10.844;2023-11-21T02:13:50;99012.75;;;9.59;100.00
53546;BME280;39432;51.902;10.844;2023-11-21T02:16:44;99006.56;;;9.74;100.00
53546;BME280;39432;51.902;10.844;2023-11-21T02:19:36;99013.47;;;10.02;100.00
53546;BME280;39432;51.902;10.844;2023-11-21T02:22:31;99017.72;;;9.67;100.00
53546;BME280;39432;51.902;10.844;2023-11-21T02:25:26;99017.31;;;10.01;100.00
53546;BME280;39432;51.902;10.844;2023-11-21T02:28:17;99030.34;;;9.89;100.00
53546;BME280;39432;51.902;10.844;2023-11-21T02:31:13;99028.47;;;9.37;100.00
53546;BME280;39432;51.902;10.844;2023-11-21T02:34:04;99024.22;;;9.61;100.00
53546;BME280;39432;51.902;10.844;2023-11-21T02:36:55;99041.44;;;9.14;100.00
53546;BME280;39432;51.902;10.844;2023-11-21T02:39:45;99047.56;;;9.32;100.00
53546;BME280;39432;51.902;10.844;2023-11-21T02:42:39;99048.25;;;9.59;100.00
53546;BME280;39432;51.902;10.844;2023-11-21T02:45:29;99056.53;;;9.74;100.00
53546;BME280;39432;51.902;10.844;2023-11-21T02:48:20;99047.81;;;9.83;100.00
53546;BME280;39432;51.902;10.844;2023-11-21T02:51:11;99044.00;;;9.79;100.00
53546;BME280;39432;51.902;10.844;2023-11-21T02:54:03;99047.88;;;9.93;100.00
53546;BME280;39432;51.902;10.844;2023-11-21T02:56:56;99039.22;;;10.21;100.00
53546;BME280;39432;51.902;10.844;2023-11-21T02:59:49;99039.84;;;10.28;100.00
53546;BME280;39432;51.902;10.844;2023-11-21T03:02:39;99032.25;;;9.83;100.00
53546;BME280;39432;51.902;10.844;2023-11-21T03:05:30;99041.94;;;10.16;100.00
53546;BME280;39432;51.902;10.844;2023-11-21T03:08:23;99036.28;;;10.33;100.00
53546;BME280;39432;51.902;10.844;2023-11-21T03:11:13;99035.41;;;10.17;100.00
53546;BME280;39432;51.902;10.844;2023-11-21T03:14:05;99036.97;;;10.03;100.00
53546;BME280;39432;51.902;10.844;2023-11-21T03:16:57;99033.75;;;10.11;100.00
53546;BME280;39432;51.902;10.844;2023-11-21T03:19:48;99036.72;;;10.04;100.00
53546;BME280;39432;51.902;10.844;2023-11-21T03:22:40;99041.97;;;9.59;100.00
53546;BME280;39432;51.902;10.844;2023-11-21T03:25:31;99054.88;;;9.68;100.00
53546;BME280;39432;51.902;10.844;2023-11-21T03:28:21;99053.25;;;9.72;100.00
53546;BME280;39432;51.902;10.844;2023-11-21T03:31:11;99056.59;;;9.85;100.00
53546;BME280;39432;51.902;10.844;2023-11-21T03:34:15;99056.47;;;9.59;100.00
53546;BME280;39432;51.902;10.844;2023-11-21T03:37:06;99067.59;;;10.05;100.00
53546;BME280;39432;51.902;10.844;2023-11-21T03:39:56;99068.56;;;9.73;100.00
53546;BME280;39432;51.902;10.844;2023-11-21T03:42:47;99067.94;;;9.61;100.00
53546;BME280;39432;51.902;10.844;2023-11-21T03:45:40;99081.78;;;9.97;100.00
53546;BME280;39432;51.902;10.844;2023-11-21T03:48:30;99078.78;;;9.46;100.00
53546;BME280;39432;51.902;10.844;2023-11-21T03:51:23;99091.97;;;9.22;100.00
53546;BME280;39432;51.902;10.844;2023-11-21T03:54:14;99103.50;;;9.29;100.00
53546;BME280;39432;51.902;10.844;2023-11-21T03:57:06;99107.56;;;8.94;100.00
53546;BME280;39432;51.902;10.844;2023-11-21T03:59:56;99128.56;;;8.94;100.00
53546;BME280;39432;51.902;10.844;2023-11-21T04:02:47;99136.97;;;9.14;100.00
53546;BME280;39432;51.902;10.844;2023-11-21T04:05:39;99142.69;;;9.13;100.00
53546;BME280;39432;51.902;10.844;2023-11-21T04:08:32;99146.97;;;9.04;100.00
53546;BME280;39432;51.902;10.844;2023-11-21T04:11:23;99159.91;;;9.50;100.00
53546;BME280;39432;51.902;10.844;2023-11-21T04:14:13;99152.28;;;9.53;100.00
53546;BME280;39432;51.902;10.844;2023-11-21T04:17:04;99154.81;;;9.64;100.00
53546;BME280;39432;51.902;10.844;2023-11-21T04:19:54;99154.22;;;9.57;100.00
53546;BME280;39432;51.902;10.844;2023-11-21T04:22:45;99153.00;;;9.43;100.00
53546;BME280;39432;51.902;10.844;2023-11-21T04:25:38;99153.66;;;9.55;100.00
53546;BME280;39432;51.902;10.844;2023-11-21T04:28:29;99157.03;;;9.67;100.00
53546;BME280;39432;51.902;10.844;2023-11-21T04:31:19;99161.28;;;9.90;100.00
53546;BME280;39432;51.902;10.844;2023-11-21T04:34:10;99148.84;;;9.67;100.00
53546;BME280;39432;51.902;10.844;2023-11-21T04:37:01;99140.38;;;9.32;100.00
53546;BME280;39432;51.902;10.844;2023-11-21T04:39:54;99152.69;;;9.02;100.00
53546;BME280;39432;51.902;10.844;2023-11-21T04:42:47;99173.06;;;8.94;100.00
53546;BME280;39432;51.902;10.844;2023-11-21T04:45:37;99175.50;;;8.91;100.00
53546;BME280;39432;51.902;10.844;2023-11-21T04:48:28;99189.72;;;8.71;100.00
53546;BME280;39432;51.902;10.844;2023-11-21T04:51:19;99197.50;;;9.11;100.00
53546;BME280;39432;51.902;10.844;2023-11-21T04:54:09;99201.56;;;8.82;100.00
53546;BME280;39432;51.902;10.844;2023-11-21T04:56:59;99215.59;;;8.90;100.00
53546;BME280;39432;51.902;10.844;2023-11-21T04:59:55;99208.16;;;9.40;100.00
53546;BME280;39432;51.902;10.844;2023-11-21T05:02:45;99210.44;;;9.21;100.00
53546;BME280;39432;51.902;10.844;2023-11-21T05:05:36;99211.81;;;9.56;100.00
53546;BME280;39432;51.902;10.844;2023-11-21T05:08:26;99204.16;;;9.20;100.00
53546;BME280;39432;51.902;10.844;2023-11-21T05:11:24;99210.22;;;9.28;100.00
53546;BME280;39432;51.902;10.844;2023-11-21T05:14:14;99206.59;;;8.95;100.00
53546;BME280;39432;51.902;10.844;2023-11-21T05:17:08;99223.19;;;8.88;100.00
53546;BME280;39432;51.902;10.844;2023-11-21T05:19:59;99239.56;;;8.88;100.00
53546;BME280;39432;51.902;10.844;2023-11-21T05:22:51;99242.31;;;8.66;100.00
53546;BME280;39432;51.902;10.844;2023-11-21T05:25:41;99257.78;;;8.83;100.00
53546;BME280;39432;51.902;10.844;2023-11-21T05:28:32;99255.56;;;8.80;100.00
53546;BME280;39432;51.902;10.844;2023-11-21T05:31:24;99274.78;;;8.46;100.00
53546;BME280;39432;51.902;10.844;2023-11-21T05:34:17;99286.13;;;8.82;100.00
53546;BME280;39432;51.902;10.844;2023-11-21T05:37:08;99292.16;;;8.84;100.00
53546;BME280;39432;51.902;10.844;2023-11-21T05:39:59;99298.25;;;8.91;100.00
53546;BME280;39432;51.902;10.844;2023-11-21T05:42:53;99292.53;;;8.92;100.00
53546;BME280;39432;51.902;10.844;2023-11-21T05:45:43;99308.09;;;8.92;100.00
53546;BME280;39432;51.902;10.844;2023-11-21T05:48:34;99308.63;;;8.94;100.00
53546;BME280;39432;51.902;10.844;2023-11-21T05:51:27;99317.34;;;8.91;100.00
53546;BME280;39432;51.902;10.844;2023-11-21T05:54:17;99315.84;;;8.61;100.00
53546;BME280;39432;51.902;10.844;2023-11-21T05:57:08;99331.06;;;8.74;100.00
53546;BME280;39432;51.902;10.844;2023-11-21T05:59:58;99342.94;;;8.68;100.00
53546;BME280;39432;51.902;10.844;2023-11-21T06:02:52;99346.75;;;8.67;100.00
53546;BME280;39432;51.902;10.844;2023-11-21T06:05:43;99355.69;;;8.62;100.00
53546;BME280;39432;51.902;10.844;2023-11-21T06:08:36;99350.59;;;8.15;100.00
53546;BME280;39432;51.902;10.844;2023-11-21T06:11:26;99376.38;;;8.25;100.00
53546;BME280;39432;51.902;10.844;2023-11-21T06:14:17;99387.75;;;8.55;100.00
53546;BME280;39432;51.902;10.844;2023-11-21T06:17:09;99387.41;;;8.35;100.00
53546;BME280;39432;51.902;10.844;2023-11-21T06:20:01;99406.72;;;8.84;100.00
53546;BME280;39432;51.902;10.844;2023-11-21T06:22:56;99400.44;;;8.83;100.00
53546;BME280;39432;51.902;10.844;2023-11-21T06:25:54;99404.59;;;8.86;100.00
53546;BME280;39432;51.902;10.844;2023-11-21T06:28:44;99400.91;;;8.97;100.00
53546;BME280;39432;51.902;10.844;2023-11-21T06:31:35;99399.69;;;8.88;100.00
53546;BME280;39432;51.902;10.844;2023-11-21T06:34:25;99400.91;;;8.97;100.00
53546;BME280;39432;51.902;10.844;2023-11-21T06:37:16;99396.63;;;8.84;100.00
53546;BME280;39432;51.902;10.844;2023-11-21T06:40:08;99414.78;;;9.12;100.00
53546;BME280;39432;51.902;10.844;2023-11-21T06:43:03;99410.22;;;8.79;100.00
53546;BME280;39432;51.902;10.844;2023-11-21T06:45:54;99406.59;;;8.74;100.00
53546;BME280;39432;51.902;10.844;2023-11-21T06:48:45;99427.69;;;9.00;100.00
53546;BME280;39432;51.902;10.844;2023-11-21T06:51:37;99418.34;;;8.74;100.00
53546;BME280;39432;51.902;10.844;2023-11-21T06:54:27;99433.97;;;9.22;100.00
53546;BME280;39432;51.902;10.844;2023-11-21T06:57:18;99425.09;;;8.71;100.00
53546;BME280;39432;51.902;10.844;2023-11-21T07:00:12;99430.22;;;8.51;100.00
53546;BME280;39432;51.902;10.844;2023-11-21T07:03:03;99447.72;;;8.89;100.00
53546;BME280;39432;51.902;10.844;2023-11-21T07:05:54;99460.94;;;9.36;100.00
53546;BME280;39432;51.902;10.844;2023-11-21T07:08:44;99461.13;;;9.73;100.00
53546;BME280;39432;51.902;10.844;2023-11-21T07:11:35;99445.38;;;9.58;100.00
53546;BME280;39432;51.902;10.844;2023-11-21T07:14:30;99450.56;;;9.38;100.00
53546;BME280;39432;51.902;10.844;2023-11-21T07:17:23;99441.56;;;9.37;100.00
53546;BME280;39432;51.902;10.844;2023-11-21T07:20:13;99445.09;;;9.38;100.00
53546;BME280;39432;51.902;10.844;2023-11-21T07:23:05;99446.94;;;9.32;100.00
53546;BME280;39432;51.902;10.844;2023-11-21T07:25:55;99442.78;;;8.86;100.00
53546;BME280;39432;51.902;10.844;2023-11-21T07:28:46;99457.31;;;8.91;100.00
53546;BME280;39432;51.902;10.844;2023-11-21T07:31:36;99467.03;;;9.04;100.00
53546;BME280;39432;51.902;10.844;2023-11-21T07:34:31;99478.47;;;8.84;100.00
53546;BME280;39432;51.902;10.844;2023-11-21T07:37:22;99480.03;;;8.97;100.00
53546;BME280;39432;51.902;10.844;2023-11-21T07:40:14;99481.88;;;8.91;100.00
53546;BME280;39432;51.902;10.844;2023-11-21T07:43:04;99491.63;;;8.70;100.00
53546;BME280;39432;51.902;10.844;2023-11-21T07:45:55;99502.75;;;9.19;100.00
53546;BME280;39432;51.902;10.844;2023-11-21T07:48:45;99510.34;;;9.17;100.00
53546;BME280;39432;51.902;10.844;2023-11-21T07:51:38;99502.63;;;8.76;100.00
53546;BME280;39432;51.902;10.844;2023-11-21T07:54:29;99512.06;;;8.85;100.00
53546;BME280;39432;51.902;10.844;2023-11-21T07:57:19;99520.97;;;8.47;100.00
53546;BME280;39432;51.902;10.844;2023-11-21T08:00:11;99537.34;;;8.63;100.00
53546;BME280;39432;51.902;10.844;2023-11-21T08:03:03;99539.44;;;8.44;100.00
53546;BME280;39432;51.902;10.844;2023-11-21T08:05:53;99560.53;;;8.49;100.00
53546;BME280;39432;51.902;10.844;2023-11-21T08:08:47;99574.56;;;8.41;100.00
53546;BME280;39432;51.902;10.844;2023-11-21T08:11:38;99570.06;;;7.19;100.00
53546;BME280;39432;51.902;10.844;2023-11-21T08:14:29;99603.84;;;6.76;100.00
53546;BME280;39432;51.902;10.844;2023-11-21T08:17:20;99624.66;;;6.52;100.00
53546;BME280;39432;51.902;10.844;2023-11-21T08:20:11;99654.22;;;6.49;100.00
53546;BME280;39432;51.902;10.844;2023-11-21T08:23:03;99668.16;;;6.52;100.00
53546;BME280;39432;51.902;10.844;2023-11-21T08:25:57;99688.25;;;6.51;100.00
53546;BME280;39432;51.902;10.844;2023-11-21T08:28:49;99699.81;;;6.47;100.00
53546;BME280;39432;51.902;10.844;2023-11-21T08:31:40;99720.72;;;6.46;100.00
53546;BME280;39432;51.902;10.844;2023-11-21T08:34:31;99740.47;;;6.53;100.00
53546;BME280;39432;51.902;10.844;2023-11-21T08:37:21;99762.38;;;6.40;100.00
53546;BME280;39432;51.902;10.844;2023-11-21T08:40:12;99769.47;;;6.23;100.00
53546;BME280;39432;51.902;10.844;2023-11-21T08:43:07;99780.63;;;6.15;100.00
53546;BME280;39432;51.902;10.844;2023-11-21T08:45:59;99793.38;;;5.89;100.00
53546;BME280;39432;51.902;10.844;2023-11-21T08:48:50;99804.22;;;5.96;100.00
53546;BME280;39432;51.902;10.844;2023-11-21T08:51:41;99818.44;;;5.91;100.00
53546;BME280;39432;51.902;10.844;2023-11-21T08:54:32;99839.63;;;6.07;100.00
53546;BME280;39432;51.902;10.844;2023-11-21T08:57:22;99848.44;;;6.03;100.00
53546;BME280;39432;51.902;10.844;2023-11-21T09:00:16;99859.47;;;6.08;100.00
53546;BME280;39432;51.902;10.844;2023-11-21T09:03:06;99874.75;;;6.02;100.00
53546;BME280;39432;51.902;10.844;2023-11-21T09:05:57;99880.09;;;5.52;100.00
53546;BME280;39432;51.902;10.844;2023-11-21T09:08:48;99882.34;;;5.62;100.00
53546;BME280;39432;51.902;10.844;2023-11-21T09:11:38;99891.72;;;5.60;100.00
53546;BME280;39432;51.902;10.844;2023-11-21T09:14:29;99901.22;;;5.44;100.00
53546;BME280;39432;51.902;10.844;2023-11-21T09:17:21;99902.50;;;5.41;100.00
53546;BME280;39432;51.902;10.844;2023-11-21T09:20:12;99908.47;;;5.57;100.00
53546;BME280;39432;51.902;10.844;2023-11-21T09:23:03;99922.47;;;5.85;100.00
53546;BME280;39432;51.902;10.844;2023-11-21T09:25:54;99932.81;;;5.70;100.00
53546;BME280;39432;51.902;10.844;2023-11-21T09:28:47;99943.34;;;5.91;100.00
53546;BME280;39432;51.902;10.844;2023-11-21T09:31:37;99952.69;;;5.64;100.00
53546;BME280;39432;51.902;10.844;2023-11-21T09:34:32;99961.91;;;6.01;100.00
53546;BME280;39432;51.902;10.844;2023-11-21T09:37:26;99965.75;;;6.18;100.00
53546;BME280;39432;51.902;10.844;2023-11-21T09:40:21;99956.44;;;5.63;100.00
53546;BME280;39432;51.902;10.844;2023-11-21T09:43:16;99961.41;;;5.72;100.00
53546;BME280;39432;51.902;10.844;2023-11-21T09:46:08;99972.16;;;5.92;100.00
53546;BME280;39432;51.902;10.844;2023-11-21T09:49:03;99949.78;;;5.59;100.00
53546;BME280;39432;51.902;10.844;2023-11-21T09:51:58;99949.41;;;5.55;100.00
53546;BME280;39432;51.902;10.844;2023-11-21T09:54:52;99942.31;;;5.47;100.00
53546;BME280;39432;51.902;10.844;2023-11-21T09:57:44;99944.16;;;5.53;100.00
53546;BME280;39432;51.902;10.844;2023-11-21T10:00:36;99939.38;;;5.55;100.00
53546;BME280;39432;51.902;10.844;2023-11-21T10:03:26;99940.91;;;5.76;100.00
53546;BME280;39432;51.902;10.844;2023-11-21T10:06:17;99940.00;;;5.89;100.00
53546;BME280;39432;51.902;10.844;2023-11-21T10:09:12;99946.69;;;5.87;100.00
53546;BME280;39432;51.902;10.844;2023-11-21T10:12:06;99934.91;;;6.06;100.00
53546;BME280;39432;51.902;10.844;2023-11-21T10:14:58;99927.06;;;5.91;100.00
53546;BME280;39432;51.902;10.844;2023-11-21T10:17:52;99905.44;;;5.71;100.00
53546;BME280;39432;51.902;10.844;2023-11-21T10:20:44;99910.06;;;6.02;100.00
53546;BME280;39432;51.902;10.844;2023-11-21T10:23:41;99881.75;;;5.53;100.00
53546;BME280;39432;51.902;10.844;2023-11-21T10:26:34;99880.75;;;5.79;100.00
53546;BME280;39432;51.902;10.844;2023-11-21T10:29:39;99869.41;;;5.58;100.00
53546;BME280;39432;51.902;10.844;2023-11-21T10:32:30;99860.56;;;5.37;100.00
53546;BME280;39432;51.902;10.844;2023-11-21T10:35:20;99841.06;;;5.22;100.00
53546;BME280;39432;51.902;10.844;2023-11-21T10:38:11;99829.41;;;5.46;100.00
53546;BME280;39432;51.902;10.844;2023-11-21T10:41:02;99822.41;;;5.64;100.00
53546;BME280;39432;51.902;10.844;2023-11-21T10:43:57;99818.09;;;5.81;100.00
53546;BME280;39432;51.902;10.844;2023-11-21T10:46:48;99801.59;;;5.82;100.00
53546;BME280;39432;51.902;10.844;2023-11-21T10:49:41;99782.84;;;5.49;100.00
53546;BME280;39432;51.902;10.844;2023-11-21T10:52:32;99784.94;;;5.47;100.00
53546;BME280;39432;51.902;10.844;2023-11-21T10:55:23;99780.97;;;5.75;100.00
53546;BME280;39432;51.902;10.844;2023-11-21T10:58:14;99777.19;;;5.76;100.00
53546;BME280;39432;51.902;10.844;2023-11-21T11:01:07;99762.47;;;5.90;100.00
53546;BME280;39432;51.902;10.844;2023-11-21T11:03:59;99767.50;;;5.87;100.00
53546;BME280;39432;51.902;10.844;2023-11-21T11:06:57;99768.56;;;5.86;100.00
53546;BME280;39432;51.902;10.844;2023-11-21T11:09:49;99765.00;;;5.85;100.00
53546;BME280;39432;51.902;10.844;2023-11-21T11:12:39;99754.03;;;5.98;100.00
53546;BME280;39432;51.902;10.844;2023-11-21T11:15:30;99743.25;;;5.92;100.00
53546;BME280;39432;51.902;10.844;2023-11-21T11:18:23;99749.84;;;6.21;100.00
53546;BME280;39432;51.902;10.844;2023-11-21T11:21:23;99740.03;;;6.56;100.00
53546;BME280;39432;51.902;10.844;2023-11-21T11:24:28;99724.22;;;6.17;100.00
53546;BME280;39432;51.902;10.844;2023-11-21T11:27:30;99716.81;;;6.24;100.00
53546;BME280;39432;51.902;10.844;2023-11-21T11:30:34;99709.94;;;6.21;100.00
53546;BME280;39432;51.902;10.844;2023-11-21T11:33:37;99708.97;;;6.16;100.00
53546;BME280;39432;51.902;10.844;2023-11-21T11:36:34;99702.53;;;5.67;100.00
53546;BME280;39432;51.902;10.844;2023-11-21T11:39:35;99699.56;;;5.50;100.00
53546;BME280;39432;51.902;10.844;2023-11-21T11:42:26;99715.28;;;5.91;100.00
53546;BME280;39432;51.902;10.844;2023-11-21T11:45:18;99706.91;;;5.93;100.00
53546;BME280;39432;51.902;10.844;2023-11-21T11:48:11;99719.44;;;6.12;100.00
53546;BME280;39432;51.902;10.844;2023-11-21T11:51:10;99722.06;;;6.55;100.00
53546;BME280;39432;51.902;10.844;2023-11-21T11:54:02;99710.06;;;6.08;100.00
53546;BME280;39432;51.902;10.844;2023-11-21T11:56:54;99708.34;;;5.95;100.00
53546;BME280;39432;51.902;10.844;2023-11-21T12:00:08;99699.38;;;5.70;100.00
53546;BME280;39432;51.902;10.844;2023-11-21T12:03:06;99715.50;;;5.65;100.00
53546;BME280;39432;51.902;10.844;2023-11-21T12:05:57;99722.25;;;5.80;100.00
53546;BME280;39432;51.902;10.844;2023-11-21T12:08:50;99730.47;;;6.17;100.00
53546;BME280;39432;51.902;10.844;2023-11-21T12:11:41;99722.88;;;5.82;100.00
53546;BME280;39432;51.902;10.844;2023-11-21T12:14:32;99723.56;;;5.96;100.00
53546;BME280;39432;51.902;10.844;2023-11-21T12:17:22;99723.13;;;6.36;100.00
53546;BME280;39432;51.902;10.844;2023-11-21T12:20:14;99717.13;;;6.16;100.00
53546;BME280;39432;51.902;10.844;2023-11-21T12:23:05;99726.00;;;6.04;100.00
53546;BME280;39432;51.902;10.844;2023-11-21T12:26:00;99715.16;;;6.04;100.00
53546;BME280;39432;51.902;10.844;2023-11-21T12:28:52;99720.34;;;5.81;100.00
53546;BME280;39432;51.902;10.844;2023-11-21T12:31:43;99735.38;;;6.27;100.00
53546;BME280;39432;51.902;10.844;2023-11-21T12:34:35;99730.16;;;6.07;100.00
53546;BME280;39432;51.902;10.844;2023-11-21T12:37:26;99736.72;;;6.18;100.00
53546;BME280;39432;51.902;10.844;2023-11-21T12:40:17;99733.56;;;6.39;100.00
53546;BME280;39432;51.902;10.844;2023-11-21T12:43:10;99735.81;;;6.60;100.00
53546;BME280;39432;51.902;10.844;2023-11-21T12:46:05;99724.50;;;6.27;100.00
53546;BME280;39432;51.902;10.844;2023-11-21T12:48:57;99729.69;;;6.95;100.00
53546;BME280;39432;51.902;10.844;2023-11-21T12:51:47;99721.59;;;6.58;100.00
53546;BME280;39432;51.902;10.844;2023-11-21T12:54:38;99716.56;;;6.25;100.00
53546;BME280;39432;51.902;10.844;2023-11-21T12:57:29;99726.88;;;6.72;100.00
53546;BME280;39432;51.902;10.844;2023-11-21T13:00:31;99725.38;;;6.57;100.00
53546;BME280;39432;51.902;10.844;2023-11-21T13:03:25;99729.78;;;7.30;100.00
53546;BME280;39432;51.902;10.844;2023-11-21T13:06:18;99715.44;;;6.51;100.00
53546;BME280;39432;51.902;10.844;2023-11-21T13:09:12;99729.16;;;6.86;100.00
53546;BME280;39432;51.902;10.844;2023-11-21T13:12:09;99728.22;;;7.11;100.00
53546;BME280;39432;51.902;10.844;2023-11-21T13:15:03;99717.59;;;6.43;100.00
53546;BME280;39432;51.902;10.844;2023-11-21T13:17:57;99735.19;;;6.77;100.00
53546;BME280;39432;51.902;10.844;2023-11-21T13:20:49;99737.03;;;6.95;100.00
53546;BME280;39432;51.902;10.844;2023-11-21T13:23:40;99729.41;;;6.18;100.00
53546;BME280;39432;51.902;10.844;2023-11-21T13:26:33;99732.19;;;6.30;100.00
53546;BME280;39432;51.902;10.844;2023-11-21T13:29:24;99735.06;;;6.35;100.00
53546;BME280;39432;51.902;10.844;2023-11-21T13:32:14;99736.56;;;5.94;100.00
53546;BME280;39432;51.902;10.844;2023-11-21T13:35:10;99750.03;;;5.76;100.00
53546;BME280;39432;51.902;10.844;2023-11-21T13:38:09;99755.22;;;5.84;100.00
53546;BME280;39432;51.902;10.844;2023-11-21T13:41:00;99772.50;;;6.33;100.00
53546;BME280;39432;51.902;10.844;2023-11-21T13:43:54;99773.63;;;6.25;100.00
53546;BME280;39432;51.902;10.844;2023-11-21T13:46:51;99786.63;;;5.98;100.00
53546;BME280;39432;51.902;10.844;2023-11-21T13:49:44;99796.06;;;6.57;100.00
53546;BME280;39432;51.902;10.844;2023-11-21T13:52:38;99793.88;;;5.79;100.00
53546;BME280;39432;51.902;10.844;2023-11-21T13:55:28;99792.50;;;5.70;100.00
53546;BME280;39432;51.902;10.844;2023-11-21T13:58:19;99799.81;;;5.70;100.00
53546;BME280;39432;51.902;10.844;2023-11-21T14:01:12;99812.50;;;5.76;100.00
53546;BME280;39432;51.902;10.844;2023-11-21T14:04:22;99826.94;;;6.01;100.00
53546;BME280;39432;51.902;10.844;2023-11-21T14:07:34;99830.66;;;6.25;100.00
53546;BME280;39432;51.902;10.844;2023-11-21T14:10:29;99829.22;;;5.73;100.00
53546;BME280;39432;51.902;10.844;2023-11-21T14:13:27;99827.34;;;5.73;100.00
53546;BME280;39432;51.902;10.844;2023-11-21T14:16:18;99832.53;;;5.75;100.00
53546;BME280;39432;51.902;10.844;2023-11-21T14:19:10;99835.72;;;5.40;100.00
53546;BME280;39432;51.902;10.844;2023-11-21T14:22:03;99845.47;;;5.48;100.00
53546;BME280;39432;51.902;10.844;2023-11-21T14:24:57;99845.03;;;5.51;100.00
53546;BME280;39432;51.902;10.844;2023-11-21T14:27:53;99830.28;;;5.40;100.00
53546;BME280;39432;51.902;10.844;2023-11-21T14:30:44;99834.13;;;5.58;100.00
53546;BME280;39432;51.902;10.844;2023-11-21T14:33:34;99836.94;;;5.44;100.00
53546;BME280;39432;51.902;10.844;2023-11-21T14:36:25;99843.09;;;5.58;100.00
53546;BME280;39432;51.902;10.844;2023-11-21T14:39:15;99841.28;;;5.52;100.00
53546;BME280;39432;51.902;10.844;2023-11-21T14:42:11;99842.00;;;5.66;100.00
53546;BME280;39432;51.902;10.844;2023-11-21T14:45:07;99851.59;;;5.68;100.00
53546;BME280;39432;51.902;10.844;2023-11-21T14:47:59;99855.38;;;5.67;100.00
53546;BME280;39432;51.902;10.844;2023-11-21T14:51:04;99865.88;;;5.57;100.00
53546;BME280;39432;51.902;10.844;2023-11-21T14:54:07;99872.56;;;5.54;100.00
53546;BME280;39432;51.902;10.844;2023-11-21T14:56:59;99873.44;;;5.48;100.00
53546;BME280;39432;51.902;10.844;2023-11-21T14:59:48;99870.69;;;5.17;100.00
53546;BME280;39432;51.902;10.844;2023-11-21T15:02:42;99881.09;;;5.20;100.00